Tisbury, Massachusetts
Current Conditions -  °F | °C
As of 10:53 PM on Tuesday 25 Nov 2014 (Local Time) from KMVY Reporting Station
Clear Clear  
Wind Chill: 51°   Ceiling: Unl
Heat Index: 51°   Visibility: 10mi
Dew Point: 40°   Wind: 7mph
Humidity: 66%   Direction: 290°WNW
Pressure: 30.11"   Gusts: NA
Location:  41.4768°N, 70.6027°W
Report Text: KMVY 260353Z AUTO 29006KT 10SM CLR 11/04 A3011 RMK AO2 SLP195 T01060044
Loading
Personal Weather Stations






























Interactive Weather Map New forecast layout! Learn more

10-Day Weather Forecast

Advertisements
Track Severe Weather on mobile